createdAt,value
2017-11-24T00:01:37.507Z,95603
2017-11-24T00:07:06.413Z,95605
2017-11-24T00:12:34.831Z,95607
2017-11-24T00:18:03.401Z,95606
2017-11-24T00:23:32.323Z,95604
2017-11-24T00:29:01.247Z,95605
2017-11-24T00:34:29.387Z,95609
2017-11-24T00:39:58.306Z,95604
2017-11-24T00:45:26.479Z,95602
2017-11-24T00:50:54.645Z,95608
2017-11-24T00:56:23.496Z,95611
2017-11-24T01:01:52.648Z,95612
2017-11-24T01:07:21.561Z,95605
2017-11-24T01:12:50.416Z,95594
2017-11-24T01:18:19.538Z,95599
2017-11-24T01:23:47.674Z,95599
2017-11-24T01:29:16.590Z,95586
2017-11-24T01:35:01.793Z,95600
2017-11-24T01:40:29.935Z,95583
2017-11-24T01:45:58.097Z,95595
2017-11-24T01:51:26.258Z,95589
2017-11-24T01:56:54.403Z,95587
2017-11-24T02:02:22.918Z,95586
2017-11-24T02:07:52.049Z,95582
2017-11-24T02:13:20.187Z,95577
2017-11-24T02:18:48.342Z,95586
2017-11-24T02:24:16.504Z,95584
2017-11-24T02:29:44.713Z,95562
2017-11-24T02:35:12.847Z,95570
2017-11-24T02:40:41.951Z,95561
2017-11-24T02:46:10.344Z,95550
2017-11-24T02:51:38.494Z,95547
2017-11-24T02:57:06.652Z,95556
2017-11-24T03:02:34.819Z,95539
2017-11-24T03:08:03.717Z,95542
2017-11-24T03:13:31.877Z,95539
2017-11-24T03:19:00.801Z,95554
2017-11-24T03:24:29.728Z,95551
2017-11-24T03:29:57.889Z,95551
2017-11-24T03:35:26.031Z,95559
2017-11-24T03:40:54.905Z,95553
2017-11-24T03:46:23.047Z,95542
2017-11-24T03:51:52.016Z,95556
2017-11-24T03:57:20.949Z,95546
2017-11-24T04:02:49.078Z,95544
2017-11-24T04:08:17.336Z,95538
2017-11-24T04:13:45.485Z,95541
2017-11-24T04:19:14.401Z,95543
2017-11-24T04:24:42.552Z,95556
2017-11-24T04:30:10.677Z,95552
2017-11-24T04:35:38.823Z,95543
2017-11-24T04:41:06.970Z,95549
2017-11-24T04:46:35.120Z,95551
2017-11-24T04:52:07.935Z,95544
2017-11-24T04:57:36.059Z,95558
2017-11-24T05:03:04.983Z,95543
2017-11-24T05:08:33.126Z,95531
2017-11-24T05:14:02.029Z,95537
2017-11-24T05:19:32.163Z,95538
2017-11-24T05:25:00.342Z,95539
2017-11-24T05:30:29.309Z,95548
2017-11-24T05:35:58.437Z,95548
2017-11-24T05:41:26.667Z,95549
2017-11-24T05:46:54.787Z,95546
2017-11-24T05:52:22.992Z,95542
2017-11-24T05:57:54.697Z,95535
2017-11-24T06:03:23.608Z,95550
2017-11-24T06:08:51.741Z,95543
2017-11-24T06:14:19.879Z,95540
2017-11-24T06:19:48.029Z,95522
2017-11-24T06:25:16.166Z,95534
2017-11-24T06:30:44.326Z,95522
2017-11-24T06:36:13.238Z,95511
2017-11-24T06:41:41.795Z,95513
2017-11-24T06:47:10.716Z,95536
2017-11-24T06:52:38.856Z,95537
2017-11-24T06:58:11.201Z,95541
2017-11-24T07:03:39.360Z,95549
2017-11-24T07:09:07.502Z,95544
2017-11-24T07:14:36.412Z,95544
2017-11-24T07:20:04.556Z,95536
2017-11-24T07:25:33.448Z,95541
2017-11-24T07:31:01.666Z,95552
2017-11-24T07:36:29.844Z,95541
2017-11-24T07:41:58.935Z,95553
2017-11-24T07:47:27.104Z,95550
2017-11-24T07:52:56.012Z,95543
2017-11-24T07:58:24.158Z,95556
2017-11-24T08:03:53.086Z,95551
2017-11-24T08:09:21.244Z,95548
2017-11-24T08:14:49.377Z,95541
2017-11-24T08:20:17.535Z,95539
2017-11-24T08:25:45.704Z,95538
2017-11-24T08:31:13.859Z,95526
2017-11-24T08:36:42.014Z,95528
2017-11-24T08:42:10.914Z,95531
2017-11-24T08:47:44.664Z,95518
2017-11-24T08:53:12.805Z,95516
2017-11-24T08:58:40.961Z,95520
2017-11-24T09:04:09.089Z,95518
2017-11-24T09:09:37.229Z,95511
2017-11-24T09:15:05.369Z,95506
2017-11-24T09:20:33.531Z,95495
2017-11-24T09:26:02.455Z,95499
2017-11-24T09:31:31.404Z,95486
2017-11-24T09:36:59.573Z,95502
2017-11-24T09:42:27.748Z,95517
2017-11-24T09:47:55.915Z,95498
2017-11-24T09:53:24.083Z,95498
2017-11-24T09:58:53.005Z,95505
2017-11-24T10:04:21.939Z,95496
2017-11-24T10:09:50.079Z,95487
2017-11-24T10:15:18.985Z,95486
2017-11-24T10:20:52.781Z,95472
2017-11-24T10:26:20.937Z,95468
2017-11-24T10:31:49.085Z,95470
2017-11-24T10:37:17.230Z,95462
2017-11-24T10:42:45.381Z,95470
2017-11-24T10:48:13.554Z,95478
2017-11-24T10:53:42.475Z,95468
2017-11-24T10:59:10.650Z,95467
2017-11-24T11:04:38.795Z,95467
2017-11-24T11:10:06.948Z,95451
2017-11-24T11:15:35.884Z,95463
2017-11-24T11:21:04.035Z,95471
2017-11-24T11:26:32.206Z,95466
2017-11-24T11:32:00.379Z,95469
2017-11-24T11:37:28.536Z,95468
2017-11-24T11:42:56.706Z,95470
2017-11-24T11:48:24.859Z,95465
2017-11-24T11:53:53.018Z,95461
2017-11-24T11:59:21.159Z,95451
2017-11-24T12:04:49.323Z,95462
2017-11-24T12:10:17.452Z,95460
2017-11-24T12:15:45.617Z,95472
2017-11-24T12:21:14.534Z,95469
2017-11-24T12:26:43.807Z,95458
2017-11-24T12:32:11.954Z,95443
2017-11-24T12:37:40.119Z,95444
2017-11-24T12:43:08.260Z,95445
2017-11-24T12:48:36.461Z,95442
2017-11-24T12:54:05.382Z,95436
2017-11-24T12:59:33.571Z,95422
2017-11-24T13:05:01.730Z,95417
2017-11-24T13:10:29.909Z,95418
2017-11-24T13:15:58.114Z,95415
2017-11-24T13:21:27.055Z,95412
2017-11-24T13:26:55.215Z,95407
2017-11-24T13:32:23.383Z,95410
2017-11-24T13:37:51.534Z,95408
2017-11-24T13:43:19.726Z,95411
2017-11-24T13:48:47.902Z,95413
2017-11-24T13:54:16.062Z,95405
2017-11-24T13:59:44.210Z,95425
2017-11-24T14:05:12.365Z,95439
2017-11-24T14:10:40.523Z,95434
2017-11-24T14:16:08.680Z,95442
2017-11-24T14:21:36.833Z,95428
2017-11-24T14:27:05.745Z,95439
2017-11-24T14:32:33.894Z,95450
2017-11-24T14:38:02.867Z,95467
2017-11-24T14:43:31.017Z,95463
2017-11-24T14:48:59.301Z,95458
2017-11-24T14:54:27.441Z,95464
2017-11-24T14:59:55.630Z,95466
2017-11-24T15:05:23.796Z,95471
2017-11-24T15:10:51.973Z,95477
2017-11-24T15:16:20.199Z,95486
2017-11-24T15:21:49.002Z,95473
2017-11-24T15:27:17.157Z,95476
2017-11-24T15:32:45.319Z,95464
2017-11-24T15:38:13.493Z,95461
2017-11-24T15:43:43.637Z,95470
2017-11-24T15:49:11.809Z,95471
2017-11-24T15:54:39.996Z,95473
2017-11-24T16:00:08.147Z,95464
2017-11-24T16:05:36.339Z,95461
2017-11-24T16:11:04.491Z,95463
2017-11-24T16:16:32.693Z,95467
2017-11-24T16:22:00.897Z,95470
2017-11-24T16:27:29.079Z,95484
2017-11-24T16:32:57.277Z,95470
2017-11-24T16:38:25.465Z,95478
2017-11-24T16:43:53.654Z,95478
2017-11-24T16:49:22.582Z,95484
2017-11-24T16:54:50.784Z,95487
2017-11-24T17:00:19.862Z,95478
2017-11-24T17:05:48.796Z,95484
2017-11-24T17:11:29.831Z,95480
2017-11-24T17:16:57.973Z,95482
2017-11-24T17:22:26.131Z,95485
2017-11-24T17:27:54.347Z,95472
2017-11-24T17:33:22.554Z,95493
2017-11-24T17:38:50.733Z,95483
2017-11-24T17:44:19.679Z,95484
2017-11-24T17:49:47.833Z,95491
2017-11-24T17:55:16.005Z,95482
2017-11-24T18:00:44.930Z,95478
2017-11-24T18:06:13.094Z,95466
2017-11-24T18:11:41.232Z,95478
2017-11-24T18:17:09.401Z,95480
2017-11-24T18:22:37.576Z,95488
2017-11-24T18:28:05.744Z,95493
2017-11-24T18:33:34.694Z,95491
2017-11-24T18:39:03.655Z,95463
2017-11-24T18:44:31.829Z,95469
2017-11-24T18:49:59.999Z,95463
2017-11-24T18:55:28.152Z,95463
2017-11-24T19:00:56.390Z,95475
2017-11-24T19:06:24.559Z,95464
2017-11-24T19:11:52.739Z,95472
2017-11-24T19:17:20.917Z,95476
2017-11-24T19:22:49.088Z,95473
2017-11-24T19:28:18.058Z,95474
2017-11-24T19:33:46.204Z,95477
2017-11-24T19:39:14.351Z,95469
2017-11-24T19:44:42.520Z,95470
2017-11-24T19:50:10.689Z,95484
2017-11-24T19:55:38.850Z,95483
2017-11-24T20:01:06.984Z,95484
2017-11-24T20:06:35.129Z,95486
2017-11-24T20:12:03.342Z,95480
2017-11-24T20:17:41.524Z,95475
2017-11-24T20:23:09.725Z,95462
2017-11-24T20:28:44.842Z,95460
2017-11-24T20:34:13.819Z,95461
2017-11-24T20:39:41.992Z,95461
2017-11-24T20:45:10.129Z,95460
2017-11-24T20:50:39.029Z,95468
2017-11-24T20:56:07.151Z,95463
2017-11-24T21:01:35.400Z,95465
2017-11-24T21:07:04.305Z,95468
2017-11-24T21:12:32.495Z,95467
2017-11-24T21:18:00.648Z,95463
2017-11-24T21:23:29.063Z,95460
2017-11-24T21:28:57.235Z,95468
2017-11-24T21:34:26.177Z,95461
2017-11-24T21:39:54.332Z,95473
2017-11-24T21:45:22.564Z,95459
2017-11-24T21:50:51.655Z,95467
2017-11-24T21:56:21.515Z,95461
2017-11-24T22:01:50.430Z,95453
2017-11-24T22:07:28.589Z,95465
2017-11-24T22:12:56.744Z,95470
2017-11-24T22:18:24.896Z,95468
2017-11-24T22:23:58.414Z,95461
2017-11-24T22:29:26.584Z,95451
2017-11-24T22:34:54.857Z,95458
2017-11-24T22:40:23.005Z,95448
2017-11-24T22:45:51.145Z,95431
2017-11-24T22:51:22.564Z,95428
2017-11-24T22:56:50.690Z,95427
2017-11-24T23:02:20.566Z,95423
2017-11-24T23:07:48.693Z,95416
2017-11-24T23:13:28.146Z,95407
2017-11-24T23:18:57.095Z,95403
2017-11-24T23:24:25.247Z,95405
2017-11-24T23:29:55.396Z,95395
2017-11-24T23:35:24.311Z,95395
2017-11-24T23:40:59.657Z,95392
2017-11-24T23:46:27.816Z,95393
2017-11-24T23:51:55.977Z,95393
2017-11-24T23:57:24.116Z,95395
